Time;durP1;ratioP1;P1;durP2;ratioP2;P2;SDS_P1;SDS_P2;PMS_P1;PMS_P2;Temp;Humidity;BMP_temperature;BMP_pressure;BME280_temperature;BME280_humidity;BME280_pressure;Samples;Min_cycle;Max_cycle;Signal;HPM_P1;HPM_P2
2023/08/20 00:00:43;;;;;;;9.98;9.27;;;22.40;99.90;;;;;;5031597;28;20057;-58
2023/08/20 00:03:16;;;;;;;13.32;8.65;;;22.40;99.90;;;;;;5032820;28;20018;-62
2023/08/20 00:05:41;;;;;;;10.75;9.75;;;22.40;99.90;;;;;;5027119;28;20056;-60
2023/08/20 00:08:07;;;;;;;11.55;9.10;;;22.30;99.90;;;;;;5029065;28;20061;-61
2023/08/20 00:10:33;;;;;;;8.90;8.10;;;22.30;99.90;;;;;;5032531;28;20059;-60
2023/08/20 00:12:59;;;;;;;9.18;8.25;;;22.30;99.90;;;;;;5027664;28;20025;-58
2023/08/20 00:15:27;;;;;;;9.57;8.80;;;22.20;99.90;;;;;;5028974;28;20033;-60
2023/08/20 00:17:54;;;;;;;9.80;8.90;;;22.20;99.90;;;;;;5030339;28;20034;-59
2023/08/20 00:20:20;;;;;;;10.05;7.95;;;22.20;99.90;;;;;;5024604;28;20042;-58
2023/08/20 00:22:46;;;;;;;8.25;7.53;;;22.20;99.90;;;;;;5029945;28;20033;-60
2023/08/20 00:25:13;;;;;;;9.27;8.38;;;22.20;99.90;;;;;;5022787;28;20091;-60
2023/08/20 00:27:42;;;;;;;9.63;8.02;;;22.20;99.90;;;;;;5025930;28;20022;-58
2023/08/20 00:30:09;;;;;;;9.15;8.30;;;22.20;99.90;;;;;;5024304;28;20510;-60
2023/08/20 00:32:35;;;;;;;8.57;7.88;;;22.20;99.90;;;;;;5027168;28;20041;-60
2023/08/20 00:35:04;;;;;;;10.60;7.90;;;22.20;99.90;;;;;;5026488;28;20116;-60
2023/08/20 00:37:31;;;;;;;8.90;8.10;;;22.10;99.90;;;;;;5027461;28;20040;-60
2023/08/20 00:39:59;;;;;;;8.45;7.75;;;22.10;99.90;;;;;;5028087;28;20025;-59
2023/08/20 00:42:25;;;;;;;9.40;8.48;;;22.10;99.90;;;;;;5026490;28;20030;-60
2023/08/20 00:44:52;;;;;;;10.18;8.90;;;22.00;99.90;;;;;;5025426;28;20099;-59
2023/08/20 00:47:18;;;;;;;10.93;9.77;;;21.90;99.90;;;;;;5023223;28;20790;-60
2023/08/20 00:49:45;;;;;;;10.85;9.73;;;21.80;99.90;;;;;;5028668;28;20095;-59
2023/08/20 00:52:12;;;;;;;11.07;9.25;;;21.70;99.90;;;;;;5028583;28;20037;-61
2023/08/20 00:54:40;;;;;;;9.52;8.68;;;21.70;99.90;;;;;;5028340;28;20140;-61
2023/08/20 00:57:06;;;;;;;9.13;8.30;;;21.70;99.90;;;;;;5031846;28;20026;-59
2023/08/20 00:59:33;;;;;;;12.55;8.98;;;21.70;99.90;;;;;;5011869;28;20049;-59
2023/08/20 01:02:00;;;;;;;10.18;8.13;;;21.70;99.90;;;;;;5024139;28;20040;-60
2023/08/20 01:04:25;;;;;;;12.27;9.00;;;21.70;99.90;;;;;;5019434;28;20120;-58
2023/08/20 01:07:05;;;;;;;10.07;9.18;;;21.80;99.90;;;;;;5034116;28;20040;-59
2023/08/20 01:10:04;;;;;;;9.52;8.60;;;21.80;99.90;;;;;;5032701;28;20037;-59
2023/08/20 01:12:33;;;;;;;9.40;8.10;;;21.80;99.90;;;;;;5023654;28;20041;-58
2023/08/20 01:14:59;;;;;;;9.95;9.00;;;21.70;99.90;;;;;;5021361;28;20099;-58
2023/08/20 01:17:25;;;;;;;9.02;8.27;;;21.70;99.90;;;;;;5023564;28;20482;-59
2023/08/20 01:19:50;;;;;;;9.30;8.43;;;21.70;99.90;;;;;;5027397;28;20049;-58
2023/08/20 01:22:22;;;;;;;9.95;8.60;;;21.70;99.90;;;;;;5027940;28;20032;-57
2023/08/20 01:24:54;;;;;;;9.50;8.57;;;21.60;99.90;;;;;;5029660;28;20049;-59
2023/08/20 01:27:28;;;;;;;9.60;8.63;;;21.60;99.90;;;;;;5024892;28;20056;-59
2023/08/20 01:29:55;;;;;;;10.55;9.50;;;21.60;99.90;;;;;;5031457;28;20071;-59
2023/08/20 01:32:23;;;;;;;12.27;9.52;;;21.60;99.90;;;;;;5038160;28;20021;-58
2023/08/20 01:34:49;;;;;;;9.73;8.82;;;21.60;99.90;;;;;;5035972;28;20038;-61
2023/08/20 01:37:16;;;;;;;10.52;8.57;;;21.60;99.90;;;;;;5032956;28;20584;-58
2023/08/20 01:39:41;;;;;;;10.00;9.02;;;21.60;99.90;;;;;;5024391;28;20022;-58
2023/08/20 01:42:07;;;;;;;10.00;8.27;;;21.60;99.90;;;;;;5022152;28;20421;-59
2023/08/20 01:44:33;;;;;;;11.43;8.70;;;21.50;99.90;;;;;;5026840;28;20020;-60
2023/08/20 01:46:59;;;;;;;15.93;10.02;;;21.50;99.90;;;;;;5026463;28;20505;-60
2023/08/20 01:49:24;;;;;;;9.00;8.10;;;21.50;99.90;;;;;;5019486;28;20036;-60
2023/08/20 01:51:50;;;;;;;9.82;8.93;;;21.50;99.90;;;;;;5023619;28;20042;-59
2023/08/20 01:54:16;;;;;;;9.80;8.70;;;21.50;99.90;;;;;;5027105;28;20033;-60
2023/08/20 01:56:42;;;;;;;10.50;8.98;;;21.50;99.90;;;;;;5027197;28;20029;-59
2023/08/20 01:59:08;;;;;;;11.02;9.70;;;21.50;99.90;;;;;;5024300;28;20033;-60
2023/08/20 02:01:34;;;;;;;12.68;8.23;;;21.50;99.90;;;;;;5027619;28;20124;-61
2023/08/20 02:04:00;;;;;;;12.32;8.90;;;21.50;99.90;;;;;;5027972;28;20029;-60
2023/08/20 02:06:26;;;;;;;10.63;8.98;;;21.40;99.90;;;;;;5027942;28;20029;-60
2023/08/20 02:08:51;;;;;;;9.95;8.63;;;21.40;99.90;;;;;;5027156;28;20826;-57
2023/08/20 02:11:17;;;;;;;9.07;8.38;;;21.40;99.90;;;;;;5027040;28;20039;-59
2023/08/20 02:13:43;;;;;;;10.55;9.82;;;21.40;99.90;;;;;;5019893;28;20030;-60
2023/08/20 02:16:08;;;;;;;9.43;8.73;;;21.40;99.90;;;;;;5026074;28;20045;-61
2023/08/20 02:18:34;;;;;;;10.13;9.32;;;21.30;99.90;;;;;;5027816;28;20021;-59
2023/08/20 02:21:00;;;;;;;9.93;9.05;;;21.40;99.90;;;;;;5025398;28;20171;-61
2023/08/20 02:23:25;;;;;;;11.88;9.43;;;21.30;99.90;;;;;;5029000;28;20497;-59
2023/08/20 02:25:51;;;;;;;9.95;8.95;;;21.30;99.90;;;;;;5026254;28;20029;-58
2023/08/20 02:28:17;;;;;;;9.40;8.75;;;21.20;99.90;;;;;;5025961;28;20033;-60
2023/08/20 02:30:46;;;;;;;10.00;8.98;;;21.20;99.90;;;;;;5025139;28;20041;-59
2023/08/20 02:33:12;;;;;;;10.48;9.43;;;21.10;99.90;;;;;;5025160;28;20033;-58
2023/08/20 02:35:38;;;;;;;10.68;9.85;;;21.10;99.90;;;;;;5028353;28;20028;-58
2023/08/20 02:38:04;;;;;;;12.15;9.32;;;21.00;99.90;;;;;;5024141;28;20521;-60
2023/08/20 02:40:30;;;;;;;11.75;10.68;;;21.00;99.90;;;;;;5024228;28;20038;-60
2023/08/20 02:42:56;;;;;;;11.27;9.85;;;21.00;99.90;;;;;;5028362;28;20026;-60
2023/08/20 02:45:22;;;;;;;11.57;10.50;;;21.00;99.90;;;;;;5025449;28;20382;-59
2023/08/20 02:47:48;;;;;;;11.57;9.88;;;20.90;99.90;;;;;;5026214;28;20030;-61
2023/08/20 02:50:14;;;;;;;11.57;9.95;;;20.90;99.90;;;;;;5023570;28;20748;-59
2023/08/20 02:52:43;;;;;;;9.98;9.15;;;20.90;99.90;;;;;;5018594;28;20041;-58
2023/08/20 02:55:09;;;;;;;11.07;10.05;;;20.90;99.90;;;;;;5022638;28;20026;-60
2023/08/20 02:57:34;;;;;;;11.35;10.30;;;20.90;99.90;;;;;;5029203;28;20034;-59
2023/08/20 03:00:00;;;;;;;9.45;8.55;;;20.80;99.90;;;;;;5028210;28;20025;-58
2023/08/20 03:02:26;;;;;;;11.48;10.55;;;20.80;99.90;;;;;;5025148;28;20029;-60
2023/08/20 03:04:52;;;;;;;10.75;9.88;;;20.80;99.90;;;;;;5030691;28;20056;-60
2023/08/20 03:07:18;;;;;;;10.77;9.98;;;20.80;99.90;;;;;;5027428;28;20528;-59
2023/08/20 03:09:44;;;;;;;11.70;10.52;;;20.80;99.90;;;;;;5028951;28;20033;-59
2023/08/20 03:12:09;;;;;;;11.43;10.40;;;20.70;99.90;;;;;;5028379;28;20087;-59
2023/08/20 03:14:35;;;;;;;12.13;10.93;;;20.70;99.90;;;;;;5029524;28;20028;-57
2023/08/20 03:17:00;;;;;;;9.73;8.82;;;20.80;99.90;;;;;;5029232;28;20072;-61
2023/08/20 03:19:26;;;;;;;7.15;5.40;;;20.70;99.90;;;;;;5027316;28;20504;-58
2023/08/20 03:21:51;;;;;;;12.05;9.27;;;20.70;99.90;;;;;;5028160;28;20048;-59
2023/08/20 03:24:17;;;;;;;10.80;9.80;;;20.70;99.90;;;;;;5028285;28;20026;-59
2023/08/20 03:26:43;;;;;;;13.00;10.00;;;20.70;99.90;;;;;;5028543;28;20020;-60
2023/08/20 03:29:08;;;;;;;9.82;9.02;;;20.70;99.90;;;;;;5031008;28;20030;-61
2023/08/20 03:31:34;;;;;;;11.68;10.48;;;20.60;99.90;;;;;;5028647;28;20116;-61
2023/08/20 03:34:00;;;;;;;9.55;8.77;;;20.60;99.90;;;;;;5033462;28;20030;-62
2023/08/20 03:36:25;;;;;;;14.43;9.63;;;20.60;99.90;;;;;;5034942;28;20033;-61
2023/08/20 03:38:51;;;;;;;10.15;8.60;;;20.60;99.90;;;;;;5031831;28;20140;-58
2023/08/20 03:41:17;;;;;;;9.57;8.80;;;20.50;99.90;;;;;;5035775;28;20104;-62
2023/08/20 03:43:42;;;;;;;10.07;9.27;;;20.50;99.90;;;;;;5025842;28;20040;-60
2023/08/20 03:46:08;;;;;;;10.07;9.23;;;20.50;99.90;;;;;;5028772;28;20033;-58
2023/08/20 03:48:33;;;;;;;9.75;8.98;;;20.50;99.90;;;;;;5029506;28;20044;-59
2023/08/20 03:50:59;;;;;;;10.90;9.32;;;20.50;99.90;;;;;;5026114;28;20052;-60
2023/08/20 03:53:25;;;;;;;9.50;8.77;;;20.40;99.90;;;;;;5030525;28;20113;-58
2023/08/20 03:55:51;;;;;;;9.57;8.77;;;20.40;99.90;;;;;;5029541;28;20037;-60
2023/08/20 03:58:17;;;;;;;13.40;8.93;;;20.30;99.90;;;;;;5031391;28;20533;-61
2023/08/20 04:00:43;;;;;;;9.95;8.75;;;20.20;99.90;;;;;;5035894;28;20548;-60
2023/08/20 04:03:09;;;;;;;16.80;8.48;;;20.10;99.90;;;;;;5035823;28;20505;-59
2023/08/20 04:05:38;;;;;;;9.20;8.50;;;20.10;99.90;;;;;;5036138;28;20055;-60
2023/08/20 04:08:05;;;;;;;7.88;6.45;;;20.10;99.90;;;;;;5032892;28;20080;-60
2023/08/20 04:10:31;;;;;;;7.05;6.03;;;20.00;99.90;;;;;;5027634;28;20036;-59
2023/08/20 04:12:57;;;;;;;7.95;7.25;;;20.00;99.90;;;;;;5030241;28;20121;-59
2023/08/20 04:15:22;;;;;;;12.02;6.57;;;19.90;99.90;;;;;;5028775;28;20101;-59
2023/08/20 04:17:48;;;;;;;7.47;6.55;;;19.90;99.90;;;;;;5028062;28;20021;-59
2023/08/20 04:20:14;;;;;;;8.23;6.82;;;19.80;99.90;;;;;;5025557;28;20510;-58
2023/08/20 04:22:40;;;;;;;8.40;6.93;;;19.80;99.90;;;;;;5029282;28;20601;-57
2023/08/20 04:25:06;;;;;;;11.65;9.10;;;19.80;99.90;;;;;;5029385;28;20460;-60
2023/08/20 04:27:32;;;;;;;7.03;6.32;;;19.70;99.90;;;;;;5028636;28;20045;-61
2023/08/20 04:29:58;;;;;;;7.63;7.00;;;19.70;99.90;;;;;;5028373;28;20095;-61
2023/08/20 04:32:23;;;;;;;7.82;7.05;;;19.70;99.90;;;;;;5029079;28;20100;-60
2023/08/20 04:34:51;;;;;;;7.68;6.88;;;19.70;99.90;;;;;;5024843;28;20451;-59
2023/08/20 04:37:19;;;;;;;5.97;5.38;;;19.70;99.90;;;;;;5024181;28;20034;-60
2023/08/20 04:39:44;;;;;;;6.47;5.88;;;19.70;99.90;;;;;;5025233;28;20021;-60
2023/08/20 04:42:10;;;;;;;6.63;5.85;;;19.70;99.90;;;;;;5024061;28;20371;-60
2023/08/20 04:44:35;;;;;;;6.90;6.10;;;19.80;99.90;;;;;;5023001;28;20053;-58
2023/08/20 04:47:01;;;;;;;6.70;6.20;;;19.90;99.90;;;;;;5028810;28;20034;-59
2023/08/20 04:49:28;;;;;;;8.63;7.72;;;19.90;99.90;;;;;;5029421;28;20022;-59
2023/08/20 04:51:54;;;;;;;8.02;7.43;;;20.00;99.90;;;;;;5027506;28;20040;-60
2023/08/20 04:54:20;;;;;;;8.63;7.80;;;20.00;99.90;;;;;;5022225;28;20125;-59
2023/08/20 04:56:45;;;;;;;9.95;9.10;;;20.10;99.90;;;;;;5023854;28;20025;-57
2023/08/20 04:59:11;;;;;;;10.65;9.75;;;20.10;99.90;;;;;;5023003;28;20061;-58
2023/08/20 05:01:38;;;;;;;9.02;8.23;;;20.10;99.90;;;;;;5029034;28;20083;-59
2023/08/20 05:04:04;;;;;;;9.05;8.18;;;20.20;99.90;;;;;;5027330;28;20100;-60
2023/08/20 05:06:30;;;;;;;10.52;9.73;;;20.10;99.90;;;;;;5029074;28;20029;-59
2023/08/20 05:08:55;;;;;;;9.90;9.20;;;20.20;99.90;;;;;;5025672;28;20526;-60
2023/08/20 05:11:21;;;;;;;10.13;9.23;;;20.30;99.90;;;;;;5024364;28;20043;-59
2023/08/20 05:13:49;;;;;;;10.05;9.07;;;20.30;99.90;;;;;;5028187;28;20021;-61
2023/08/20 05:16:15;;;;;;;10.82;9.93;;;20.30;99.90;;;;;;5026047;28;20076;-60
2023/08/20 05:18:40;;;;;;;10.82;9.73;;;20.30;99.90;;;;;;5024204;28;20457;-57
2023/08/20 05:21:06;;;;;;;11.52;9.57;;;20.30;99.90;;;;;;5023125;28;20037;-58
2023/08/20 05:23:31;;;;;;;10.27;9.38;;;20.40;99.90;;;;;;5023781;28;20029;-60
2023/08/20 05:25:57;;;;;;;10.60;9.70;;;20.40;99.90;;;;;;5027364;28;20029;-60
2023/08/20 05:28:23;;;;;;;10.15;9.27;;;20.40;99.90;;;;;;5028348;28;20049;-60
2023/08/20 05:30:56;;;;;;;10.13;9.23;;;20.40;99.90;;;;;;5028306;28;20076;-61
2023/08/20 05:33:22;;;;;;;9.90;8.98;;;20.40;99.90;;;;;;5025654;28;20034;-59
2023/08/20 05:35:48;;;;;;;13.27;9.63;;;20.40;99.90;;;;;;5026104;28;20092;-58
2023/08/20 05:38:13;;;;;;;10.02;9.23;;;20.50;99.90;;;;;;5028895;28;20038;-61
2023/08/20 05:40:39;;;;;;;8.80;8.02;;;20.50;99.90;;;;;;5027566;28;20831;-58
2023/08/20 05:43:05;;;;;;;9.55;8.65;;;20.50;99.90;;;;;;5026247;28;20115;-60
2023/08/20 05:45:30;;;;;;;9.68;8.75;;;20.60;99.90;;;;;;5023764;28;20025;-61
2023/08/20 05:47:56;;;;;;;8.70;7.78;;;20.70;99.90;;;;;;5028058;28;20048;-59
2023/08/20 05:50:21;;;;;;;12.23;9.07;;;20.70;99.90;;;;;;5026403;28;20152;-60
2023/08/20 05:52:48;;;;;;;9.52;8.73;;;20.90;99.90;;;;;;5022204;28;20502;-59
2023/08/20 05:55:14;;;;;;;9.60;8.02;;;20.90;99.90;;;;;;5021332;28;20105;-60
2023/08/20 05:57:42;;;;;;;8.55;7.85;;;21.00;99.90;;;;;;5017321;28;20100;-61
2023/08/20 06:00:08;;;;;;;9.45;8.65;;;21.10;99.90;;;;;;5025964;28;20017;-59
2023/08/20 06:02:34;;;;;;;8.32;7.55;;;21.20;99.90;;;;;;5028307;28;20017;-61
2023/08/20 06:05:00;;;;;;;21.27;9.95;;;21.30;99.90;;;;;;5028517;28;20072;-60
2023/08/20 06:07:25;;;;;;;9.05;8.25;;;21.40;99.90;;;;;;5026722;28;20025;-62
2023/08/20 06:09:51;;;;;;;9.45;8.45;;;21.50;99.90;;;;;;5028296;28;20617;-60
2023/08/20 06:12:17;;;;;;;10.15;9.18;;;21.60;99.90;;;;;;5026343;28;20029;-61
2023/08/20 06:14:43;;;;;;;10.25;9.13;;;21.60;99.90;;;;;;5027869;28;20112;-59
2023/08/20 06:17:08;;;;;;;15.55;8.93;;;21.70;99.90;;;;;;5024061;28;20133;-59
2023/08/20 06:19:34;;;;;;;10.52;8.25;;;21.70;99.90;;;;;;5020532;28;20041;-58
2023/08/20 06:22:00;;;;;;;9.93;9.02;;;21.80;99.90;;;;;;5020617;28;20048;-61
2023/08/20 06:24:26;;;;;;;13.05;8.88;;;21.90;99.90;;;;;;5029860;28;20438;-59
2023/08/20 06:26:52;;;;;;;8.45;7.65;;;22.00;99.90;;;;;;5026548;28;20688;-61
2023/08/20 06:29:17;;;;;;;9.13;8.23;;;22.10;99.90;;;;;;5032296;28;20046;-58
2023/08/20 06:31:43;;;;;;;11.38;7.05;;;22.20;99.90;;;;;;5031683;28;20059;-59
2023/08/20 06:34:09;;;;;;;7.72;6.95;;;22.30;99.90;;;;;;5029114;28;20120;-61
2023/08/20 06:36:35;;;;;;;11.85;8.48;;;22.30;99.90;;;;;;5033601;28;20031;-61
2023/08/20 06:39:01;;;;;;;12.68;8.02;;;22.40;99.90;;;;;;5024405;28;20056;-64
2023/08/20 06:41:27;;;;;;;8.68;7.97;;;22.50;99.90;;;;;;5012233;28;20121;-61
2023/08/20 06:43:52;;;;;;;9.18;8.25;;;22.60;99.90;;;;;;5031989;28;20129;-61
2023/08/20 06:46:18;;;;;;;8.13;7.43;;;22.70;99.90;;;;;;5035880;28;20073;-59
2023/08/20 06:48:44;;;;;;;8.20;7.40;;;22.70;99.90;;;;;;5029596;28;20033;-59
2023/08/20 06:51:20;;;;;;;8.65;7.43;;;22.80;99.90;;;;;;5026851;28;20032;-61
2023/08/20 06:53:45;;;;;;;9.50;7.80;;;22.90;99.90;;;;;;5032098;28;20073;-62
2023/08/20 06:56:11;;;;;;;8.32;7.60;;;23.00;99.90;;;;;;5033101;28;20057;-61
2023/08/20 06:58:39;;;;;;;10.82;7.40;;;23.00;99.90;;;;;;5032019;28;20022;-61
2023/08/20 07:01:07;;;;;;;8.45;7.72;;;23.10;99.90;;;;;;5032841;28;20034;-59
2023/08/20 07:03:34;;;;;;;8.05;6.75;;;23.20;99.90;;;;;;5028182;28;20540;-59
2023/08/20 07:06:00;;;;;;;8.27;7.47;;;23.30;99.90;;;;;;5037989;28;20497;-60
2023/08/20 07:08:25;;;;;;;8.23;7.43;;;23.40;99.90;;;;;;5027389;28;20018;-61
2023/08/20 07:10:51;;;;;;;9.95;7.38;;;23.50;99.90;;;;;;5024243;28;20061;-59
2023/08/20 07:13:17;;;;;;;8.35;7.68;;;23.50;99.90;;;;;;5025106;28;20030;-58
2023/08/20 07:15:42;;;;;;;7.57;6.75;;;23.70;99.90;;;;;;5024761;28;20036;-62
2023/08/20 07:18:08;;;;;;;8.20;7.45;;;23.80;99.90;;;;;;5029815;28;20032;-61
2023/08/20 07:20:33;;;;;;;7.80;6.97;;;23.90;99.90;;;;;;5029647;28;20044;-61
2023/08/20 07:22:59;;;;;;;8.10;7.40;;;24.00;99.90;;;;;;5023843;28;20112;-61
2023/08/20 07:25:25;;;;;;;8.75;7.22;;;24.10;99.90;;;;;;5022489;28;20060;-61
2023/08/20 07:27:50;;;;;;;8.93;8.02;;;24.10;99.90;;;;;;5029705;28;20548;-61
2023/08/20 07:30:16;;;;;;;8.48;7.30;;;24.20;99.90;;;;;;5030969;28;20041;-61
2023/08/20 07:32:42;;;;;;;8.73;8.05;;;24.30;99.90;;;;;;5033958;28;20104;-59
2023/08/20 07:35:08;;;;;;;8.23;6.65;;;24.40;99.90;;;;;;5029982;28;20033;-60
2023/08/20 07:37:34;;;;;;;7.57;6.72;;;24.50;99.90;;;;;;5027240;28;20054;-61
2023/08/20 07:39:59;;;;;;;9.77;7.57;;;24.60;99.90;;;;;;5034157;28;20049;-61
2023/08/20 07:42:25;;;;;;;7.65;6.80;;;24.60;99.90;;;;;;5031066;28;20025;-61
2023/08/20 07:44:50;;;;;;;9.13;6.93;;;24.80;99.90;;;;;;5033224;28;20427;-60
2023/08/20 07:47:16;;;;;;;9.13;7.18;;;24.80;99.90;;;;;;5030987;28;20072;-59
2023/08/20 07:49:42;;;;;;;8.45;7.65;;;24.90;99.90;;;;;;5029565;28;20029;-58
2023/08/20 07:52:07;;;;;;;7.75;7.05;;;25.00;99.90;;;;;;5027832;28;20554;-59
2023/08/20 07:54:33;;;;;;;8.45;6.80;;;25.10;99.90;;;;;;5030118;28;20429;-61
2023/08/20 07:56:58;;;;;;;7.97;6.30;;;25.10;99.90;;;;;;5027241;28;20038;-59
2023/08/20 07:59:24;;;;;;;9.70;6.93;;;25.30;99.90;;;;;;5028365;28;20034;-61
2023/08/20 08:01:50;;;;;;;7.63;6.80;;;25.30;99.90;;;;;;5028073;28;20033;-59
2023/08/20 08:04:15;;;;;;;8.75;6.90;;;25.40;99.90;;;;;;5028253;28;20030;-60
2023/08/20 08:06:41;;;;;;;7.57;6.78;;;25.40;99.90;;;;;;5027092;28;20040;-63
2023/08/20 08:09:29;;;;;;;6.90;6.30;;;25.50;99.90;;;;;;5033497;28;20032;-59
2023/08/20 08:11:55;;;;;;;7.60;6.82;;;25.60;99.90;;;;;;5034221;28;20029;-60
2023/08/20 08:14:21;;;;;;;7.88;7.07;;;25.60;99.90;;;;;;5024922;28;20072;-59
2023/08/20 08:16:47;;;;;;;8.25;6.85;;;25.70;99.90;;;;;;5019984;28;20036;-58
2023/08/20 08:19:13;;;;;;;8.70;6.68;;;25.80;99.90;;;;;;5023861;28;20567;-59
2023/08/20 08:21:39;;;;;;;7.18;6.57;;;25.80;99.90;;;;;;5027832;28;20391;-60
2023/08/20 08:24:05;;;;;;;8.35;7.15;;;25.90;99.90;;;;;;5026407;28;20058;-61
2023/08/20 08:26:31;;;;;;;7.30;6.78;;;26.00;99.90;;;;;;5024134;28;20394;-60
2023/08/20 08:28:57;;;;;;;7.75;7.00;;;26.10;99.90;;;;;;5029326;28;20121;-59
2023/08/20 08:31:23;;;;;;;7.68;6.95;;;26.20;99.90;;;;;;5027079;28;20159;-59
2023/08/20 08:33:49;;;;;;;7.93;6.68;;;26.20;99.90;;;;;;5029183;28;20032;-59
2023/08/20 08:36:16;;;;;;;10.27;6.47;;;26.20;99.90;;;;;;5023625;28;20029;-60
2023/08/20 08:38:42;;;;;;;9.15;5.88;;;26.30;99.90;;;;;;5029438;28;20098;-59
2023/08/20 08:41:11;;;;;;;8.27;6.32;;;26.40;99.90;;;;;;5029835;28;20056;-58
2023/08/20 08:43:40;;;;;;;6.88;6.05;;;26.50;99.90;;;;;;5027509;28;20025;-60
2023/08/20 08:46:08;;;;;;;7.05;6.13;;;26.50;99.90;;;;;;5026914;28;20104;-60
2023/08/20 08:48:35;;;;;;;6.80;6.10;;;26.60;99.90;;;;;;5020267;28;20022;-60
2023/08/20 08:51:01;;;;;;;10.10;5.32;;;26.80;99.90;;;;;;5021552;28;20045;-62
2023/08/20 08:53:27;;;;;;;8.10;5.82;;;26.90;99.90;;;;;;5023016;28;20048;-61
2023/08/20 08:55:53;;;;;;;8.75;6.57;;;27.10;99.90;;;;;;5028631;28;20061;-60
2023/08/20 08:58:18;;;;;;;6.70;6.10;;;27.20;99.90;;;;;;5031584;28;20500;-60
2023/08/20 09:00:44;;;;;;;9.00;5.78;;;27.40;99.90;;;;;;5029797;28;20559;-60
2023/08/20 09:03:09;;;;;;;6.78;6.20;;;27.50;99.90;;;;;;5026512;28;20025;-60
2023/08/20 09:06:08;;;;;;;6.93;6.22;;;27.60;99.90;;;;;;5033321;28;20025;-60
2023/08/20 09:08:33;;;;;;;10.10;6.55;;;27.70;99.90;;;;;;5028919;28;20037;-60
2023/08/20 09:11:01;;;;;;;10.82;6.70;;;27.80;99.90;;;;;;5030428;28;20566;-60
2023/08/20 09:13:36;;;;;;;6.35;5.85;;;27.90;99.90;;;;;;5030863;28;20029;-60
2023/08/20 09:16:09;;;;;;;10.88;7.10;;;28.00;99.90;;;;;;5024729;28;20429;-61
2023/08/20 09:18:45;;;;;;;7.47;5.82;;;28.10;99.90;;;;;;5025923;28;20033;-61
2023/08/20 09:21:13;;;;;;;7.93;6.45;;;28.30;99.90;;;;;;5024681;28;20045;-60
2023/08/20 09:23:39;;;;;;;10.18;6.13;;;28.40;99.90;;;;;;5029444;28;20022;-60
2023/08/20 09:26:06;;;;;;;5.93;5.43;;;28.50;99.90;;;;;;5028561;28;20037;-59
2023/08/20 09:28:45;;;;;;;6.63;5.95;;;28.60;99.90;;;;;;5030354;28;20109;-60
2023/08/20 09:31:12;;;;;;;9.90;6.43;;;28.70;99.90;;;;;;5027680;28;20794;-60
2023/08/20 09:33:52;;;;;;;6.07;5.45;;;28.80;99.90;;;;;;5028461;28;20049;-60
2023/08/20 09:36:18;;;;;;;6.67;5.63;;;28.90;99.90;;;;;;5032189;28;20057;-59
2023/08/20 09:38:44;;;;;;;6.25;5.65;;;29.00;99.90;;;;;;5025546;28;20486;-60
2023/08/20 09:41:11;;;;;;;6.10;5.60;;;29.20;99.90;;;;;;5025612;28;20036;-60
2023/08/20 09:43:38;;;;;;;8.02;5.45;;;29.20;99.90;;;;;;5028124;28;20064;-59
2023/08/20 09:46:05;;;;;;;8.13;5.95;;;29.30;99.90;;;;;;5030809;28;20021;-59
2023/08/20 09:48:37;;;;;;;16.83;6.32;;;29.40;99.90;;;;;;5030977;28;20029;-61
2023/08/20 09:51:10;;;;;;;6.18;5.57;;;29.60;99.90;;;;;;5025163;28;20079;-58
2023/08/20 09:53:48;;;;;;;6.25;5.50;;;29.70;99.90;;;;;;5031407;28;20043;-61
2023/08/20 09:56:17;;;;;;;5.78;5.28;;;29.80;99.90;;;;;;5034381;28;20041;-59
2023/08/20 09:58:44;;;;;;;5.30;4.80;;;30.00;99.90;;;;;;5024251;28;20106;-60
2023/08/20 10:01:10;;;;;;;5.95;5.45;;;30.00;99.90;;;;;;5023852;28;20124;-60
2023/08/20 10:03:37;;;;;;;6.07;5.47;;;30.10;99.90;;;;;;5024730;28;20122;-60
2023/08/20 10:06:04;;;;;;;5.80;5.20;;;30.10;99.90;;;;;;5024181;28;20504;-61
2023/08/20 10:08:30;;;;;;;8.57;4.82;;;30.00;99.90;;;;;;5024468;28;20029;-61
2023/08/20 10:10:55;;;;;;;10.85;4.72;;;30.00;99.90;;;;;;5025813;28;20033;-61
2023/08/20 10:13:21;;;;;;;5.53;4.93;;;29.90;99.90;;;;;;5030061;28;20037;-61
2023/08/20 10:15:47;;;;;;;6.00;4.55;;;29.90;99.90;;;;;;5029735;28;20087;-60
2023/08/20 10:18:13;;;;;;;6.63;4.90;;;30.00;99.90;;;;;;5023529;28;20033;-61
2023/08/20 10:20:42;;;;;;;5.60;5.10;;;30.10;99.90;;;;;;5024843;28;20029;-60
2023/08/20 10:23:11;;;;;;;7.35;4.70;;;30.20;99.90;;;;;;5022480;28;20034;-59
2023/08/20 10:25:43;;;;;;;10.45;5.25;;;30.40;99.90;;;;;;5030127;28;20067;-60
2023/08/20 10:28:14;;;;;;;6.35;4.13;;;30.60;99.90;;;;;;5027774;28;20041;-60
2023/08/20 10:31:09;;;;;;;8.10;3.83;;;30.60;99.90;;;;;;5027789;28;20033;-60
2023/08/20 10:33:59;;;;;;;6.07;4.30;;;30.60;99.90;;;;;;5022623;28;20091;-60
2023/08/20 10:36:28;;;;;;;7.07;4.53;;;30.70;99.90;;;;;;5024674;28;20580;-60
2023/08/20 10:38:58;;;;;;;6.68;4.00;;;30.80;99.90;;;;;;5033227;28;20056;-59
2023/08/20 10:41:28;;;;;;;6.80;3.70;;;30.80;99.90;;;;;;5016600;28;20018;-61
2023/08/20 10:43:58;;;;;;;3.75;3.45;;;30.70;99.90;;;;;;5032025;28;20048;-62
2023/08/20 10:46:25;;;;;;;5.82;4.53;;;30.60;99.90;;;;;;5027321;28;20025;-60
2023/08/20 10:48:51;;;;;;;7.82;4.10;;;30.60;99.90;;;;;;5023649;28;20159;-60
2023/08/20 10:51:17;;;;;;;15.07;4.47;;;30.70;99.90;;;;;;5030294;28;20495;-59
2023/08/20 10:54:09;;;;;;;4.82;4.32;;;30.80;99.90;;;;;;5027602;28;20144;-59
2023/08/20 10:56:43;;;;;;;5.60;4.40;;;30.90;99.90;;;;;;5026235;28;20040;-59
2023/08/20 10:59:09;;;;;;;8.00;4.60;;;31.00;99.90;;;;;;5024611;28;20113;-60
2023/08/20 11:01:35;;;;;;;5.00;3.92;;;31.20;99.90;;;;;;5027069;28;20061;-61
2023/08/20 11:04:06;;;;;;;6.75;4.10;;;31.40;99.90;;;;;;5031220;28;20252;-59
2023/08/20 11:06:32;;;;;;;4.70;3.95;;;31.50;99.90;;;;;;5031254;28;20021;-58
2023/08/20 11:08:58;;;;;;;8.05;3.83;;;31.50;99.90;;;;;;5031968;28;20338;-61
2023/08/20 11:11:24;;;;;;;3.33;3.03;;;31.50;99.90;;;;;;5023766;28;20152;-59
2023/08/20 11:13:50;;;;;;;4.32;3.60;;;31.50;99.90;;;;;;5016526;28;20717;-60
2023/08/20 11:16:16;;;;;;;4.88;3.55;;;31.50;99.90;;;;;;5022126;28;20171;-59
2023/08/20 11:18:42;;;;;;;6.60;3.45;;;31.40;99.90;;;;;;5019604;28;20116;-58
2023/08/20 11:21:08;;;;;;;7.72;3.95;;;31.20;99.90;;;;;;5021079;28;20513;-61
2023/08/20 11:23:35;;;;;;;4.28;3.47;;;31.10;99.90;;;;;;5019317;28;20053;-61
2023/08/20 11:26:01;;;;;;;5.20;4.70;;;31.00;99.90;;;;;;5020196;28;20048;-59
2023/08/20 11:28:28;;;;;;;8.80;3.83;;;31.10;99.90;;;;;;5024401;28;20499;-59
2023/08/20 11:30:55;;;;;;;7.28;4.03;;;31.00;99.90;;;;;;5023231;28;20037;-60
2023/08/20 11:33:21;;;;;;;4.68;4.28;;;30.80;99.90;;;;;;5026512;28;20022;-61
2023/08/20 11:35:48;;;;;;;4.20;3.80;;;30.80;99.90;;;;;;5032029;28;20029;-58
2023/08/20 11:38:13;;;;;;;9.98;3.88;;;30.80;99.90;;;;;;5031650;28;20041;-60
2023/08/20 11:40:39;;;;;;;4.22;3.83;;;30.80;99.90;;;;;;5029750;28;20025;-58
2023/08/20 11:43:05;;;;;;;4.47;3.97;;;30.70;99.90;;;;;;5026823;28;20036;-60
2023/08/20 11:45:32;;;;;;;5.35;3.90;;;30.70;99.90;;;;;;5023885;28;20033;-60
2023/08/20 11:47:58;;;;;;;5.68;3.50;;;30.60;99.90;;;;;;5026831;28;20045;-60
2023/08/20 11:50:24;;;;;;;6.47;3.78;;;30.50;99.90;;;;;;5028640;28;20026;-60
2023/08/20 11:52:52;;;;;;;5.60;3.33;;;30.40;99.90;;;;;;5029594;28;20486;-61
2023/08/20 11:55:24;;;;;;;4.55;3.97;;;30.40;99.90;;;;;;5030557;28;20502;-59
2023/08/20 11:57:54;;;;;;;5.25;4.25;;;30.50;99.90;;;;;;5032566;28;20761;-60
2023/08/20 12:00:28;;;;;;;5.63;3.72;;;30.60;99.90;;;;;;5029753;28;20037;-60
2023/08/20 12:02:55;;;;;;;9.80;4.10;;;30.70;99.90;;;;;;5032511;28;20443;-59
2023/08/20 12:05:29;;;;;;;4.85;3.55;;;30.80;99.90;;;;;;5032853;28;20028;-59
2023/08/20 12:08:01;;;;;;;3.33;3.05;;;31.10;99.90;;;;;;5030076;28;20033;-60
2023/08/20 12:10:28;;;;;;;6.00;3.70;;;31.50;99.90;;;;;;5032596;28;20029;-59
2023/08/20 12:12:55;;;;;;;10.63;3.85;;;31.80;99.90;;;;;;5034178;28;20078;-59
2023/08/20 12:15:21;;;;;;;7.15;3.22;;;32.20;96.00;;;;;;5028908;28;20049;-60
2023/08/20 12:17:56;;;;;;;3.45;2.95;;;32.50;89.80;;;;;;5034127;28;20035;-59
2023/08/20 12:20:22;;;;;;;10.38;3.40;;;32.70;85.00;;;;;;5031370;28;20048;-61
2023/08/20 12:22:48;;;;;;;4.80;2.95;;;32.80;84.20;;;;;;5026864;28;20053;-59
2023/08/20 12:25:14;;;;;;;3.47;2.72;;;32.70;91.10;;;;;;5029137;28;20375;-59
2023/08/20 12:27:41;;;;;;;3.70;2.60;;;32.60;83.10;;;;;;5026395;28;20627;-60
2023/08/20 12:30:07;;;;;;;7.68;2.90;;;32.40;85.60;;;;;;5046789;28;20052;-61
2023/08/20 12:32:32;;;;;;;5.22;3.05;;;32.30;95.50;;;;;;5033843;28;20062;-59
2023/08/20 12:34:58;;;;;;;4.20;3.05;;;32.30;92.10;;;;;;5024927;28;20022;-60
2023/08/20 12:37:24;;;;;;;7.38;2.72;;;32.40;93.40;;;;;;5024957;28;20030;-61
2023/08/20 12:39:49;;;;;;;4.63;3.25;;;32.50;84.50;;;;;;5022624;28;20124;-61
2023/08/20 12:42:15;;;;;;;5.38;2.70;;;32.50;83.20;;;;;;5030193;28;20026;-60